sensor_id;sensor_type;location;lat;lon;timestamp;temperature;humidity
14378;DHT22;7272;53.668;9.578;2023-12-28T00:00:53;9.00;99.90
14378;DHT22;7272;53.668;9.578;2023-12-28T00:03:54;9.00;99.90
14378;DHT22;7272;53.668;9.578;2023-12-28T00:06:56;8.90;99.90
14378;DHT22;7272;53.668;9.578;2023-12-28T00:09:57;8.90;99.90
14378;DHT22;7272;53.668;9.578;2023-12-28T00:12:58;8.90;99.90
14378;DHT22;7272;53.668;9.578;2023-12-28T00:16:00;8.80;99.90
14378;DHT22;7272;53.668;9.578;2023-12-28T00:19:01;8.80;99.90
14378;DHT22;7272;53.668;9.578;2023-12-28T00:22:05;8.80;99.90
14378;DHT22;7272;53.668;9.578;2023-12-28T00:25:06;8.80;99.90
14378;DHT22;7272;53.668;9.578;2023-12-28T00:28:08;8.80;99.90
14378;DHT22;7272;53.668;9.578;2023-12-28T00:31:09;8.80;99.90
14378;DHT22;7272;53.668;9.578;2023-12-28T00:34:11;8.70;99.90
14378;DHT22;7272;53.668;9.578;2023-12-28T00:37:14;8.70;99.90
14378;DHT22;7272;53.668;9.578;2023-12-28T00:40:15;8.70;99.90
14378;DHT22;7272;53.668;9.578;2023-12-28T00:43:16;8.70;99.90
14378;DHT22;7272;53.668;9.578;2023-12-28T00:46:18;8.70;99.90
14378;DHT22;7272;53.668;9.578;2023-12-28T00:49:19;8.70;99.90
14378;DHT22;7272;53.668;9.578;2023-12-28T00:52:21;8.70;99.90
14378;DHT22;7272;53.668;9.578;2023-12-28T00:55:22;8.70;99.90
14378;DHT22;7272;53.668;9.578;2023-12-28T00:58:23;8.70;99.90
14378;DHT22;7272;53.668;9.578;2023-12-28T01:01:25;8.70;99.90
14378;DHT22;7272;53.668;9.578;2023-12-28T01:04:26;8.80;99.90
14378;DHT22;7272;53.668;9.578;2023-12-28T01:07:28;8.80;99.90
14378;DHT22;7272;53.668;9.578;2023-12-28T01:10:29;8.90;99.90
14378;DHT22;7272;53.668;9.578;2023-12-28T01:13:31;8.90;99.90
14378;DHT22;7272;53.668;9.578;2023-12-28T01:16:32;9.00;99.90
14378;DHT22;7272;53.668;9.578;2023-12-28T01:19:34;9.00;99.90
14378;DHT22;7272;53.668;9.578;2023-12-28T01:22:36;9.10;99.90
14378;DHT22;7272;53.668;9.578;2023-12-28T01:25:38;9.10;99.90
14378;DHT22;7272;53.668;9.578;2023-12-28T01:28:39;9.10;99.90
14378;DHT22;7272;53.668;9.578;2023-12-28T01:31:41;9.20;99.90
14378;DHT22;7272;53.668;9.578;2023-12-28T01:34:42;9.20;99.90
14378;DHT22;7272;53.668;9.578;2023-12-28T01:37:44;9.20;99.90
14378;DHT22;7272;53.668;9.578;2023-12-28T01:40:45;9.20;99.90
14378;DHT22;7272;53.668;9.578;2023-12-28T01:43:47;9.30;99.90
14378;DHT22;7272;53.668;9.578;2023-12-28T01:46:48;9.30;99.90
14378;DHT22;7272;53.668;9.578;2023-12-28T01:49:49;9.30;99.90
14378;DHT22;7272;53.668;9.578;2023-12-28T01:52:51;9.30;99.90
14378;DHT22;7272;53.668;9.578;2023-12-28T01:55:53;9.30;99.90
14378;DHT22;7272;53.668;9.578;2023-12-28T01:58:55;9.30;99.90
14378;DHT22;7272;53.668;9.578;2023-12-28T02:01:56;9.30;99.90
14378;DHT22;7272;53.668;9.578;2023-12-28T02:04:58;9.30;99.90
14378;DHT22;7272;53.668;9.578;2023-12-28T02:08:00;9.30;99.90
14378;DHT22;7272;53.668;9.578;2023-12-28T02:11:03;9.40;99.90
14378;DHT22;7272;53.668;9.578;2023-12-28T02:14:04;9.30;99.90
14378;DHT22;7272;53.668;9.578;2023-12-28T02:17:10;9.40;99.90
14378;DHT22;7272;53.668;9.578;2023-12-28T02:20:14;9.40;99.90
14378;DHT22;7272;53.668;9.578;2023-12-28T02:23:17;9.30;99.90
14378;DHT22;7272;53.668;9.578;2023-12-28T02:26:19;9.40;99.90
14378;DHT22;7272;53.668;9.578;2023-12-28T02:29:21;9.40;99.90
14378;DHT22;7272;53.668;9.578;2023-12-28T02:32:32;9.40;99.90
14378;DHT22;7272;53.668;9.578;2023-12-28T02:35:36;9.40;99.90
14378;DHT22;7272;53.668;9.578;2023-12-28T02:38:39;9.40;99.90
14378;DHT22;7272;53.668;9.578;2023-12-28T02:41:43;9.40;99.90
14378;DHT22;7272;53.668;9.578;2023-12-28T02:44:45;9.40;99.90
14378;DHT22;7272;53.668;9.578;2023-12-28T02:47:46;9.30;99.90
14378;DHT22;7272;53.668;9.578;2023-12-28T02:50:47;9.30;99.90
14378;DHT22;7272;53.668;9.578;2023-12-28T02:53:49;9.30;99.90
14378;DHT22;7272;53.668;9.578;2023-12-28T02:56:51;9.30;99.90
14378;DHT22;7272;53.668;9.578;2023-12-28T02:59:53;9.40;99.90
14378;DHT22;7272;53.668;9.578;2023-12-28T03:02:54;9.40;99.90
14378;DHT22;7272;53.668;9.578;2023-12-28T03:05:55;9.40;99.90
14378;DHT22;7272;53.668;9.578;2023-12-28T03:08:56;9.40;99.90
14378;DHT22;7272;53.668;9.578;2023-12-28T03:11:58;9.40;99.90
14378;DHT22;7272;53.668;9.578;2023-12-28T03:15:00;9.30;99.90
14378;DHT22;7272;53.668;9.578;2023-12-28T03:18:01;9.40;99.90
14378;DHT22;7272;53.668;9.578;2023-12-28T03:21:03;9.40;99.90
14378;DHT22;7272;53.668;9.578;2023-12-28T03:24:04;9.40;99.90
14378;DHT22;7272;53.668;9.578;2023-12-28T03:27:08;9.40;99.90
14378;DHT22;7272;53.668;9.578;2023-12-28T03:30:11;9.40;99.90
14378;DHT22;7272;53.668;9.578;2023-12-28T03:33:13;9.40;99.90
14378;DHT22;7272;53.668;9.578;2023-12-28T03:36:18;9.40;99.90
14378;DHT22;7272;53.668;9.578;2023-12-28T03:39:20;9.40;99.90
14378;DHT22;7272;53.668;9.578;2023-12-28T03:42:21;9.40;99.90
14378;DHT22;7272;53.668;9.578;2023-12-28T03:45:23;9.40;99.90
14378;DHT22;7272;53.668;9.578;2023-12-28T03:48:24;9.40;99.90
14378;DHT22;7272;53.668;9.578;2023-12-28T03:51:25;9.40;99.90
14378;DHT22;7272;53.668;9.578;2023-12-28T03:54:27;9.40;99.90
14378;DHT22;7272;53.668;9.578;2023-12-28T03:57:29;9.40;99.90
14378;DHT22;7272;53.668;9.578;2023-12-28T04:00:30;9.40;99.90
14378;DHT22;7272;53.668;9.578;2023-12-28T04:03:33;9.40;99.90
14378;DHT22;7272;53.668;9.578;2023-12-28T04:06:34;9.40;99.90
14378;DHT22;7272;53.668;9.578;2023-12-28T04:09:35;9.40;99.90
14378;DHT22;7272;53.668;9.578;2023-12-28T04:12:38;9.40;99.90
14378;DHT22;7272;53.668;9.578;2023-12-28T04:15:41;9.40;99.90
14378;DHT22;7272;53.668;9.578;2023-12-28T04:18:43;9.40;99.90
14378;DHT22;7272;53.668;9.578;2023-12-28T04:21:45;9.40;99.90
14378;DHT22;7272;53.668;9.578;2023-12-28T04:24:46;9.40;99.90
14378;DHT22;7272;53.668;9.578;2023-12-28T04:27:48;9.40;99.90
14378;DHT22;7272;53.668;9.578;2023-12-28T04:30:50;9.30;99.90
14378;DHT22;7272;53.668;9.578;2023-12-28T04:33:51;9.30;99.90
14378;DHT22;7272;53.668;9.578;2023-12-28T04:36:53;9.30;99.90
14378;DHT22;7272;53.668;9.578;2023-12-28T04:39:54;9.30;99.90
14378;DHT22;7272;53.668;9.578;2023-12-28T04:42:56;9.30;99.90
14378;DHT22;7272;53.668;9.578;2023-12-28T04:46:02;9.30;99.90
14378;DHT22;7272;53.668;9.578;2023-12-28T04:49:04;9.30;99.90
14378;DHT22;7272;53.668;9.578;2023-12-28T04:52:06;9.30;99.90
14378;DHT22;7272;53.668;9.578;2023-12-28T04:55:07;9.30;99.90
14378;DHT22;7272;53.668;9.578;2023-12-28T04:58:10;9.40;99.90
14378;DHT22;7272;53.668;9.578;2023-12-28T05:01:11;9.30;99.90
14378;DHT22;7272;53.668;9.578;2023-12-28T05:04:13;9.30;99.90
14378;DHT22;7272;53.668;9.578;2023-12-28T05:07:14;9.30;99.90
14378;DHT22;7272;53.668;9.578;2023-12-28T05:10:15;9.40;99.90
14378;DHT22;7272;53.668;9.578;2023-12-28T05:13:18;9.30;99.90
14378;DHT22;7272;53.668;9.578;2023-12-28T05:16:19;9.30;99.90
14378;DHT22;7272;53.668;9.578;2023-12-28T05:19:21;9.30;99.90
14378;DHT22;7272;53.668;9.578;2023-12-28T05:22:22;9.30;99.90
14378;DHT22;7272;53.668;9.578;2023-12-28T05:25:24;9.40;99.90
14378;DHT22;7272;53.668;9.578;2023-12-28T05:28:25;9.40;99.90
14378;DHT22;7272;53.668;9.578;2023-12-28T05:31:27;9.40;99.90
14378;DHT22;7272;53.668;9.578;2023-12-28T05:34:28;9.40;99.90
14378;DHT22;7272;53.668;9.578;2023-12-28T05:37:29;9.40;99.90
14378;DHT22;7272;53.668;9.578;2023-12-28T05:40:31;9.40;99.90
14378;DHT22;7272;53.668;9.578;2023-12-28T05:43:33;9.40;99.90
14378;DHT22;7272;53.668;9.578;2023-12-28T05:46:34;9.40;99.90
14378;DHT22;7272;53.668;9.578;2023-12-28T05:49:37;9.40;99.90
14378;DHT22;7272;53.668;9.578;2023-12-28T05:52:38;9.50;99.90
14378;DHT22;7272;53.668;9.578;2023-12-28T05:55:39;9.50;99.90
14378;DHT22;7272;53.668;9.578;2023-12-28T05:58:42;9.50;99.90
14378;DHT22;7272;53.668;9.578;2023-12-28T06:01:43;9.60;99.90
14378;DHT22;7272;53.668;9.578;2023-12-28T06:04:45;9.60;99.90
14378;DHT22;7272;53.668;9.578;2023-12-28T06:07:46;9.70;99.90
14378;DHT22;7272;53.668;9.578;2023-12-28T06:10:47;9.70;99.90
14378;DHT22;7272;53.668;9.578;2023-12-28T06:13:49;9.60;99.90
14378;DHT22;7272;53.668;9.578;2023-12-28T06:16:50;9.70;99.90
14378;DHT22;7272;53.668;9.578;2023-12-28T06:19:52;9.70;99.90
14378;DHT22;7272;53.668;9.578;2023-12-28T06:22:53;9.70;99.90
14378;DHT22;7272;53.668;9.578;2023-12-28T06:25:54;9.80;99.90
14378;DHT22;7272;53.668;9.578;2023-12-28T06:28:56;9.80;99.90
14378;DHT22;7272;53.668;9.578;2023-12-28T06:31:57;9.80;99.90
14378;DHT22;7272;53.668;9.578;2023-12-28T06:34:59;9.80;99.90
14378;DHT22;7272;53.668;9.578;2023-12-28T06:38:00;9.90;99.90
14378;DHT22;7272;53.668;9.578;2023-12-28T06:41:09;9.90;99.90
14378;DHT22;7272;53.668;9.578;2023-12-28T06:44:12;9.90;99.90
14378;DHT22;7272;53.668;9.578;2023-12-28T06:47:14;9.90;99.90
14378;DHT22;7272;53.668;9.578;2023-12-28T06:50:15;9.90;99.90
14378;DHT22;7272;53.668;9.578;2023-12-28T06:53:17;9.90;99.90
14378;DHT22;7272;53.668;9.578;2023-12-28T06:56:18;9.90;99.90
14378;DHT22;7272;53.668;9.578;2023-12-28T06:59:20;9.90;99.90
14378;DHT22;7272;53.668;9.578;2023-12-28T07:02:21;9.80;99.90
14378;DHT22;7272;53.668;9.578;2023-12-28T07:05:23;9.80;99.90
14378;DHT22;7272;53.668;9.578;2023-12-28T07:08:24;9.80;99.90
14378;DHT22;7272;53.668;9.578;2023-12-28T07:11:25;9.80;99.90
14378;DHT22;7272;53.668;9.578;2023-12-28T07:14:28;9.80;99.90
14378;DHT22;7272;53.668;9.578;2023-12-28T07:17:29;9.80;99.90
14378;DHT22;7272;53.668;9.578;2023-12-28T07:20:30;9.90;99.90
14378;DHT22;7272;53.668;9.578;2023-12-28T07:23:31;9.90;99.90
14378;DHT22;7272;53.668;9.578;2023-12-28T07:26:33;9.90;99.90
14378;DHT22;7272;53.668;9.578;2023-12-28T07:29:35;9.90;99.90
14378;DHT22;7272;53.668;9.578;2023-12-28T07:32:36;9.90;99.90
14378;DHT22;7272;53.668;9.578;2023-12-28T07:35:37;9.90;99.90
14378;DHT22;7272;53.668;9.578;2023-12-28T07:38:39;9.90;99.90
14378;DHT22;7272;53.668;9.578;2023-12-28T07:41:40;9.90;99.90
14378;DHT22;7272;53.668;9.578;2023-12-28T07:44:42;9.90;99.90
14378;DHT22;7272;53.668;9.578;2023-12-28T07:47:44;9.90;99.90
14378;DHT22;7272;53.668;9.578;2023-12-28T07:50:45;9.90;99.90
14378;DHT22;7272;53.668;9.578;2023-12-28T07:53:47;10.00;99.90
14378;DHT22;7272;53.668;9.578;2023-12-28T07:56:48;10.00;99.90
14378;DHT22;7272;53.668;9.578;2023-12-28T07:59:50;10.10;99.90
14378;DHT22;7272;53.668;9.578;2023-12-28T08:02:52;10.20;99.90
14378;DHT22;7272;53.668;9.578;2023-12-28T08:05:53;10.30;99.90
14378;DHT22;7272;53.668;9.578;2023-12-28T08:08:54;10.40;99.90
14378;DHT22;7272;53.668;9.578;2023-12-28T08:11:56;10.40;99.90
14378;DHT22;7272;53.668;9.578;2023-12-28T08:14:59;10.50;99.90
14378;DHT22;7272;53.668;9.578;2023-12-28T08:18:00;10.50;99.90
14378;DHT22;7272;53.668;9.578;2023-12-28T08:21:02;10.50;99.90
14378;DHT22;7272;53.668;9.578;2023-12-28T08:24:03;10.60;99.90
14378;DHT22;7272;53.668;9.578;2023-12-28T08:27:05;10.70;99.90
14378;DHT22;7272;53.668;9.578;2023-12-28T08:30:08;10.70;99.90
14378;DHT22;7272;53.668;9.578;2023-12-28T08:33:10;10.70;99.90
14378;DHT22;7272;53.668;9.578;2023-12-28T08:36:12;10.80;99.90
14378;DHT22;7272;53.668;9.578;2023-12-28T08:39:13;10.90;99.90
14378;DHT22;7272;53.668;9.578;2023-12-28T08:42:15;10.90;99.90
14378;DHT22;7272;53.668;9.578;2023-12-28T08:45:17;11.00;99.90
14378;DHT22;7272;53.668;9.578;2023-12-28T08:48:19;11.00;99.90
14378;DHT22;7272;53.668;9.578;2023-12-28T08:51:20;11.10;99.90
14378;DHT22;7272;53.668;9.578;2023-12-28T08:54:21;11.10;99.90
14378;DHT22;7272;53.668;9.578;2023-12-28T08:57:22;11.10;99.90
14378;DHT22;7272;53.668;9.578;2023-12-28T09:00:24;11.20;99.90
14378;DHT22;7272;53.668;9.578;2023-12-28T09:03:26;11.30;99.90
14378;DHT22;7272;53.668;9.578;2023-12-28T09:06:27;11.30;99.90
14378;DHT22;7272;53.668;9.578;2023-12-28T09:09:28;11.40;99.90
14378;DHT22;7272;53.668;9.578;2023-12-28T09:12:30;11.50;99.90
14378;DHT22;7272;53.668;9.578;2023-12-28T09:15:32;11.50;99.90
14378;DHT22;7272;53.668;9.578;2023-12-28T09:18:33;11.60;99.90
14378;DHT22;7272;53.668;9.578;2023-12-28T09:21:37;11.60;99.90
14378;DHT22;7272;53.668;9.578;2023-12-28T09:24:38;11.70;99.90
14378;DHT22;7272;53.668;9.578;2023-12-28T09:27:40;11.70;99.90
14378;DHT22;7272;53.668;9.578;2023-12-28T09:30:42;11.70;99.90
14378;DHT22;7272;53.668;9.578;2023-12-28T09:33:43;11.70;99.90
14378;DHT22;7272;53.668;9.578;2023-12-28T09:36:45;11.80;99.90
14378;DHT22;7272;53.668;9.578;2023-12-28T09:39:46;11.80;99.90
14378;DHT22;7272;53.668;9.578;2023-12-28T09:42:51;11.80;99.90
14378;DHT22;7272;53.668;9.578;2023-12-28T09:45:55;11.80;99.90
14378;DHT22;7272;53.668;9.578;2023-12-28T09:48:56;11.90;99.90
14378;DHT22;7272;53.668;9.578;2023-12-28T09:51:59;11.90;99.90
14378;DHT22;7272;53.668;9.578;2023-12-28T09:55:00;11.90;99.90
14378;DHT22;7272;53.668;9.578;2023-12-28T09:58:02;12.00;99.90
14378;DHT22;7272;53.668;9.578;2023-12-28T10:01:08;12.00;99.90
14378;DHT22;7272;53.668;9.578;2023-12-28T10:04:10;12.00;99.90
14378;DHT22;7272;53.668;9.578;2023-12-28T10:07:11;12.00;99.90
14378;DHT22;7272;53.668;9.578;2023-12-28T10:10:13;12.10;99.90
14378;DHT22;7272;53.668;9.578;2023-12-28T10:13:15;12.10;99.90
14378;DHT22;7272;53.668;9.578;2023-12-28T10:16:17;12.10;99.90
14378;DHT22;7272;53.668;9.578;2023-12-28T10:19:21;12.20;99.90
14378;DHT22;7272;53.668;9.578;2023-12-28T10:22:23;12.20;99.90
14378;DHT22;7272;53.668;9.578;2023-12-28T10:25:24;12.20;99.90
14378;DHT22;7272;53.668;9.578;2023-12-28T10:28:26;12.20;99.90
14378;DHT22;7272;53.668;9.578;2023-12-28T10:31:28;12.20;99.90
14378;DHT22;7272;53.668;9.578;2023-12-28T10:34:29;12.20;99.90
14378;DHT22;7272;53.668;9.578;2023-12-28T10:37:31;12.30;99.90
14378;DHT22;7272;53.668;9.578;2023-12-28T10:40:34;12.30;99.90
14378;DHT22;7272;53.668;9.578;2023-12-28T10:43:46;12.40;99.90
14378;DHT22;7272;53.668;9.578;2023-12-28T10:46:50;12.40;99.90
14378;DHT22;7272;53.668;9.578;2023-12-28T10:49:53;12.40;99.90
14378;DHT22;7272;53.668;9.578;2023-12-28T10:53:04;12.40;99.90
14378;DHT22;7272;53.668;9.578;2023-12-28T10:56:17;12.40;99.90
14378;DHT22;7272;53.668;9.578;2023-12-28T10:59:27;12.40;99.90
14378;DHT22;7272;53.668;9.578;2023-12-28T11:02:38;12.40;99.90
14378;DHT22;7272;53.668;9.578;2023-12-28T11:05:40;12.40;99.90
14378;DHT22;7272;53.668;9.578;2023-12-28T11:08:46;12.40;99.90
14378;DHT22;7272;53.668;9.578;2023-12-28T11:11:51;12.40;99.90
14378;DHT22;7272;53.668;9.578;2023-12-28T11:14:55;12.40;99.90
14378;DHT22;7272;53.668;9.578;2023-12-28T11:17:58;12.40;99.90
14378;DHT22;7272;53.668;9.578;2023-12-28T11:21:00;12.40;99.90
14378;DHT22;7272;53.668;9.578;2023-12-28T11:24:02;12.40;99.90
14378;DHT22;7272;53.668;9.578;2023-12-28T11:27:04;12.40;99.90
14378;DHT22;7272;53.668;9.578;2023-12-28T11:30:07;12.40;99.90
14378;DHT22;7272;53.668;9.578;2023-12-28T11:33:11;12.40;99.90
14378;DHT22;7272;53.668;9.578;2023-12-28T11:36:21;12.40;99.90
14378;DHT22;7272;53.668;9.578;2023-12-28T11:39:29;12.40;99.90
14378;DHT22;7272;53.668;9.578;2023-12-28T11:42:31;12.50;99.90
14378;DHT22;7272;53.668;9.578;2023-12-28T11:45:33;12.50;99.90
14378;DHT22;7272;53.668;9.578;2023-12-28T11:48:35;12.50;99.90
14378;DHT22;7272;53.668;9.578;2023-12-28T11:51:38;12.50;99.90
14378;DHT22;7272;53.668;9.578;2023-12-28T11:54:48;12.60;99.90
14378;DHT22;7272;53.668;9.578;2023-12-28T11:57:50;12.60;99.90
14378;DHT22;7272;53.668;9.578;2023-12-28T12:00:51;12.60;99.90
14378;DHT22;7272;53.668;9.578;2023-12-28T12:03:53;12.70;99.90
14378;DHT22;7272;53.668;9.578;2023-12-28T12:06:55;12.70;99.90
14378;DHT22;7272;53.668;9.578;2023-12-28T12:09:56;12.70;99.90
14378;DHT22;7272;53.668;9.578;2023-12-28T12:12:59;12.70;99.90
14378;DHT22;7272;53.668;9.578;2023-12-28T12:16:00;12.60;99.90
14378;DHT22;7272;53.668;9.578;2023-12-28T12:19:07;12.60;99.90
14378;DHT22;7272;53.668;9.578;2023-12-28T12:22:08;12.50;99.90
14378;DHT22;7272;53.668;9.578;2023-12-28T12:25:10;12.50;99.90
14378;DHT22;7272;53.668;9.578;2023-12-28T12:28:11;12.40;99.90
14378;DHT22;7272;53.668;9.578;2023-12-28T12:31:12;12.40;99.90
14378;DHT22;7272;53.668;9.578;2023-12-28T12:34:15;12.40;99.90
14378;DHT22;7272;53.668;9.578;2023-12-28T12:37:17;12.40;99.90
14378;DHT22;7272;53.668;9.578;2023-12-28T12:40:19;12.40;99.90
14378;DHT22;7272;53.668;9.578;2023-12-28T12:43:21;12.50;99.90
14378;DHT22;7272;53.668;9.578;2023-12-28T12:46:23;12.50;99.90
14378;DHT22;7272;53.668;9.578;2023-12-28T12:49:25;12.50;99.90
14378;DHT22;7272;53.668;9.578;2023-12-28T12:52:27;12.50;99.90
14378;DHT22;7272;53.668;9.578;2023-12-28T12:55:29;12.50;99.90
14378;DHT22;7272;53.668;9.578;2023-12-28T12:58:31;12.50;99.90
14378;DHT22;7272;53.668;9.578;2023-12-28T13:01:32;12.40;99.90
14378;DHT22;7272;53.668;9.578;2023-12-28T13:04:34;12.40;99.90
14378;DHT22;7272;53.668;9.578;2023-12-28T13:07:36;12.40;99.90
14378;DHT22;7272;53.668;9.578;2023-12-28T13:10:37;12.40;99.90
14378;DHT22;7272;53.668;9.578;2023-12-28T13:13:38;12.40;99.90
14378;DHT22;7272;53.668;9.578;2023-12-28T13:16:39;12.40;99.90
14378;DHT22;7272;53.668;9.578;2023-12-28T13:19:41;12.40;99.90
14378;DHT22;7272;53.668;9.578;2023-12-28T13:22:43;12.30;99.90
14378;DHT22;7272;53.668;9.578;2023-12-28T13:25:44;12.30;99.90
14378;DHT22;7272;53.668;9.578;2023-12-28T13:28:45;12.30;99.90
14378;DHT22;7272;53.668;9.578;2023-12-28T13:31:47;12.30;99.90
14378;DHT22;7272;53.668;9.578;2023-12-28T13:34:51;12.30;99.90
14378;DHT22;7272;53.668;9.578;2023-12-28T13:37:53;12.40;99.90
14378;DHT22;7272;53.668;9.578;2023-12-28T13:40:54;12.40;99.90
14378;DHT22;7272;53.668;9.578;2023-12-28T13:43:56;12.40;99.90
14378;DHT22;7272;53.668;9.578;2023-12-28T13:47:03;12.40;99.90
14378;DHT22;7272;53.668;9.578;2023-12-28T13:50:06;12.40;99.90
14378;DHT22;7272;53.668;9.578;2023-12-28T13:53:07;12.30;99.90
14378;DHT22;7272;53.668;9.578;2023-12-28T13:56:09;12.30;99.90
14378;DHT22;7272;53.668;9.578;2023-12-28T13:59:10;12.30;99.90
14378;DHT22;7272;53.668;9.578;2023-12-28T14:02:11;12.20;99.90
14378;DHT22;7272;53.668;9.578;2023-12-28T14:05:13;12.10;99.90
14378;DHT22;7272;53.668;9.578;2023-12-28T14:08:14;11.90;99.90
14378;DHT22;7272;53.668;9.578;2023-12-28T14:11:16;11.90;99.90
14378;DHT22;7272;53.668;9.578;2023-12-28T14:14:17;11.90;99.90
14378;DHT22;7272;53.668;9.578;2023-12-28T14:17:18;11.80;99.90
14378;DHT22;7272;53.668;9.578;2023-12-28T14:20:21;11.80;99.90
14378;DHT22;7272;53.668;9.578;2023-12-28T14:23:22;11.80;99.90
14378;DHT22;7272;53.668;9.578;2023-12-28T14:26:24;11.80;99.90
14378;DHT22;7272;53.668;9.578;2023-12-28T14:29:26;11.80;99.90
14378;DHT22;7272;53.668;9.578;2023-12-28T14:32:28;11.80;99.90
14378;DHT22;7272;53.668;9.578;2023-12-28T14:35:31;11.80;99.90
14378;DHT22;7272;53.668;9.578;2023-12-28T14:38:32;11.90;99.90
14378;DHT22;7272;53.668;9.578;2023-12-28T14:41:34;11.90;99.90
14378;DHT22;7272;53.668;9.578;2023-12-28T14:44:36;11.90;99.90
14378;DHT22;7272;53.668;9.578;2023-12-28T14:47:37;11.90;99.90
14378;DHT22;7272;53.668;9.578;2023-12-28T14:50:40;11.90;99.90
14378;DHT22;7272;53.668;9.578;2023-12-28T14:53:41;11.90;99.90
14378;DHT22;7272;53.668;9.578;2023-12-28T14:56:42;12.00;99.90
14378;DHT22;7272;53.668;9.578;2023-12-28T14:59:43;12.00;99.90
14378;DHT22;7272;53.668;9.578;2023-12-28T15:02:45;12.00;99.90
14378;DHT22;7272;53.668;9.578;2023-12-28T15:05:46;12.00;99.90
14378;DHT22;7272;53.668;9.578;2023-12-28T15:08:48;12.00;99.90
14378;DHT22;7272;53.668;9.578;2023-12-28T15:11:49;12.00;99.90
14378;DHT22;7272;53.668;9.578;2023-12-28T15:14:51;12.00;99.90
14378;DHT22;7272;53.668;9.578;2023-12-28T15:17:53;12.00;99.90
14378;DHT22;7272;53.668;9.578;2023-12-28T15:20:56;12.00;99.90
14378;DHT22;7272;53.668;9.578;2023-12-28T15:23:58;12.00;99.90
14378;DHT22;7272;53.668;9.578;2023-12-28T15:26:59;12.00;99.90
14378;DHT22;7272;53.668;9.578;2023-12-28T15:30:00;12.00;99.90
14378;DHT22;7272;53.668;9.578;2023-12-28T15:33:01;12.00;99.90
14378;DHT22;7272;53.668;9.578;2023-12-28T15:36:04;11.90;99.90
14378;DHT22;7272;53.668;9.578;2023-12-28T15:39:05;11.90;99.90
14378;DHT22;7272;53.668;9.578;2023-12-28T15:42:06;11.90;99.90
14378;DHT22;7272;53.668;9.578;2023-12-28T15:45:08;11.90;99.90
14378;DHT22;7272;53.668;9.578;2023-12-28T15:48:09;11.90;99.90
14378;DHT22;7272;53.668;9.578;2023-12-28T15:51:11;11.90;99.90
14378;DHT22;7272;53.668;9.578;2023-12-28T15:54:12;11.90;99.90
14378;DHT22;7272;53.668;9.578;2023-12-28T15:57:13;11.80;99.90
14378;DHT22;7272;53.668;9.578;2023-12-28T16:00:15;11.80;99.90
14378;DHT22;7272;53.668;9.578;2023-12-28T16:03:17;11.80;99.90
14378;DHT22;7272;53.668;9.578;2023-12-28T16:06:19;11.80;99.90
14378;DHT22;7272;53.668;9.578;2023-12-28T16:09:20;11.80;99.90
14378;DHT22;7272;53.668;9.578;2023-12-28T16:12:21;11.70;99.90
14378;DHT22;7272;53.668;9.578;2023-12-28T16:15:23;11.70;99.90
14378;DHT22;7272;53.668;9.578;2023-12-28T16:18:25;11.70;99.90
14378;DHT22;7272;53.668;9.578;2023-12-28T16:21:28;11.70;99.90
14378;DHT22;7272;53.668;9.578;2023-12-28T16:24:31;11.70;99.90
14378;DHT22;7272;53.668;9.578;2023-12-28T16:27:32;11.70;99.90
14378;DHT22;7272;53.668;9.578;2023-12-28T16:30:33;11.70;99.90
14378;DHT22;7272;53.668;9.578;2023-12-28T16:33:35;11.70;99.90
14378;DHT22;7272;53.668;9.578;2023-12-28T16:36:37;11.60;99.90
14378;DHT22;7272;53.668;9.578;2023-12-28T16:39:38;11.60;99.90
14378;DHT22;7272;53.668;9.578;2023-12-28T16:42:39;11.60;99.90
14378;DHT22;7272;53.668;9.578;2023-12-28T16:45:41;11.60;99.90
14378;DHT22;7272;53.668;9.578;2023-12-28T16:48:42;11.60;99.90
14378;DHT22;7272;53.668;9.578;2023-12-28T16:51:45;11.60;99.90
14378;DHT22;7272;53.668;9.578;2023-12-28T16:54:46;11.60;99.90
14378;DHT22;7272;53.668;9.578;2023-12-28T16:57:47;11.50;99.90
14378;DHT22;7272;53.668;9.578;2023-12-28T17:00:48;11.40;99.90
14378;DHT22;7272;53.668;9.578;2023-12-28T17:03:49;11.30;99.90
14378;DHT22;7272;53.668;9.578;2023-12-28T17:06:51;11.20;99.90
14378;DHT22;7272;53.668;9.578;2023-12-28T17:09:53;11.10;99.90
14378;DHT22;7272;53.668;9.578;2023-12-28T17:12:55;11.10;99.90
14378;DHT22;7272;53.668;9.578;2023-12-28T17:15:57;11.10;99.90
14378;DHT22;7272;53.668;9.578;2023-12-28T17:18:59;11.00;99.90
14378;DHT22;7272;53.668;9.578;2023-12-28T17:22:03;11.10;99.90
14378;DHT22;7272;53.668;9.578;2023-12-28T17:25:10;11.00;99.90
14378;DHT22;7272;53.668;9.578;2023-12-28T17:28:15;11.00;99.90
14378;DHT22;7272;53.668;9.578;2023-12-28T17:31:18;10.90;99.90
14378;DHT22;7272;53.668;9.578;2023-12-28T17:34:22;10.90;99.90
14378;DHT22;7272;53.668;9.578;2023-12-28T17:37:24;10.90;99.90
14378;DHT22;7272;53.668;9.578;2023-12-28T17:40:26;10.90;99.90
14378;DHT22;7272;53.668;9.578;2023-12-28T17:43:32;10.90;99.90
14378;DHT22;7272;53.668;9.578;2023-12-28T17:46:47;10.80;99.90
14378;DHT22;7272;53.668;9.578;2023-12-28T17:49:48;10.80;99.90
14378;DHT22;7272;53.668;9.578;2023-12-28T17:52:51;10.80;99.90
14378;DHT22;7272;53.668;9.578;2023-12-28T17:55:53;10.90;99.90
14378;DHT22;7272;53.668;9.578;2023-12-28T17:58:54;11.00;99.90
14378;DHT22;7272;53.668;9.578;2023-12-28T18:01:55;11.10;99.90
14378;DHT22;7272;53.668;9.578;2023-12-28T18:04:56;11.10;99.90
14378;DHT22;7272;53.668;9.578;2023-12-28T18:07:58;11.10;99.90
14378;DHT22;7272;53.668;9.578;2023-12-28T18:11:00;11.20;99.90
14378;DHT22;7272;53.668;9.578;2023-12-28T18:14:01;11.20;99.90
14378;DHT22;7272;53.668;9.578;2023-12-28T18:17:03;11.30;99.90
14378;DHT22;7272;53.668;9.578;2023-12-28T18:20:05;11.30;99.90
14378;DHT22;7272;53.668;9.578;2023-12-28T18:23:07;11.40;99.90
14378;DHT22;7272;53.668;9.578;2023-12-28T18:26:09;11.40;99.90
14378;DHT22;7272;53.668;9.578;2023-12-28T18:29:11;11.40;99.90
14378;DHT22;7272;53.668;9.578;2023-12-28T18:32:13;11.40;99.90
14378;DHT22;7272;53.668;9.578;2023-12-28T18:35:14;11.40;99.90
14378;DHT22;7272;53.668;9.578;2023-12-28T18:38:16;11.40;99.90
14378;DHT22;7272;53.668;9.578;2023-12-28T18:41:17;11.40;99.90
14378;DHT22;7272;53.668;9.578;2023-12-28T18:44:18;11.40;99.90
14378;DHT22;7272;53.668;9.578;2023-12-28T18:47:19;11.40;99.90
14378;DHT22;7272;53.668;9.578;2023-12-28T18:50:21;11.50;99.90
14378;DHT22;7272;53.668;9.578;2023-12-28T18:53:23;11.50;99.90
14378;DHT22;7272;53.668;9.578;2023-12-28T18:56:24;11.40;99.90
14378;DHT22;7272;53.668;9.578;2023-12-28T18:59:25;11.50;99.90
14378;DHT22;7272;53.668;9.578;2023-12-28T19:02:28;11.40;99.90
14378;DHT22;7272;53.668;9.578;2023-12-28T19:05:29;11.40;99.90
14378;DHT22;7272;53.668;9.578;2023-12-28T19:08:31;11.50;99.90
14378;DHT22;7272;53.668;9.578;2023-12-28T19:11:32;11.50;99.90
14378;DHT22;7272;53.668;9.578;2023-12-28T19:14:33;11.40;99.90
14378;DHT22;7272;53.668;9.578;2023-12-28T19:17:35;11.40;99.90
14378;DHT22;7272;53.668;9.578;2023-12-28T19:20:38;11.40;99.90
14378;DHT22;7272;53.668;9.578;2023-12-28T19:23:40;11.40;99.90
14378;DHT22;7272;53.668;9.578;2023-12-28T19:26:42;11.40;99.90
14378;DHT22;7272;53.668;9.578;2023-12-28T19:29:43;11.40;99.90
14378;DHT22;7272;53.668;9.578;2023-12-28T19:32:44;11.40;99.90
14378;DHT22;7272;53.668;9.578;2023-12-28T19:35:47;11.40;99.90